sensor_id;sensor_type;location;lat;lon;timestamp;P1;durP1;ratioP1;P2;durP2;ratioP2
35743;SDS011;21867;52.012;4.324;2023-04-25T00:00:31;12.50;;;3.93;;
35743;SDS011;21867;52.012;4.324;2023-04-25T00:02:58;11.97;;;3.93;;
35743;SDS011;21867;52.012;4.324;2023-04-25T00:05:26;8.67;;;3.60;;
35743;SDS011;21867;52.012;4.324;2023-04-25T00:07:53;10.40;;;3.70;;
35743;SDS011;21867;52.012;4.324;2023-04-25T00:13:19;17.03;;;3.73;;
35743;SDS011;21867;52.012;4.324;2023-04-25T00:15:46;11.03;;;3.90;;
35743;SDS011;21867;52.012;4.324;2023-04-25T00:18:14;8.87;;;3.33;;
35743;SDS011;21867;52.012;4.324;2023-04-25T00:20:41;13.87;;;4.10;;
35743;SDS011;21867;52.012;4.324;2023-04-25T00:23:09;12.40;;;4.00;;
35743;SDS011;21867;52.012;4.324;2023-04-25T00:25:36;18.10;;;3.73;;
35743;SDS011;21867;52.012;4.324;2023-04-25T00:28:03;10.37;;;3.60;;
35743;SDS011;21867;52.012;4.324;2023-04-25T00:30:42;9.67;;;3.30;;
35743;SDS011;21867;52.012;4.324;2023-04-25T00:33:09;10.13;;;3.37;;
35743;SDS011;21867;52.012;4.324;2023-04-25T00:35:37;10.57;;;3.20;;
35743;SDS011;21867;52.012;4.324;2023-04-25T00:38:04;8.23;;;3.17;;
35743;SDS011;21867;52.012;4.324;2023-04-25T00:46:17;9.40;;;3.80;;
35743;SDS011;21867;52.012;4.324;2023-04-25T00:48:45;7.93;;;3.23;;
35743;SDS011;21867;52.012;4.324;2023-04-25T00:51:13;10.60;;;3.67;;
35743;SDS011;21867;52.012;4.324;2023-04-25T00:53:41;13.20;;;3.70;;
35743;SDS011;21867;52.012;4.324;2023-04-25T00:56:08;14.17;;;3.70;;
35743;SDS011;21867;52.012;4.324;2023-04-25T00:58:35;11.40;;;3.80;;
35743;SDS011;21867;52.012;4.324;2023-04-25T01:01:03;7.20;;;3.73;;
35743;SDS011;21867;52.012;4.324;2023-04-25T01:03:32;10.07;;;3.60;;
35743;SDS011;21867;52.012;4.324;2023-04-25T01:06:00;9.27;;;3.43;;
35743;SDS011;21867;52.012;4.324;2023-04-25T01:08:27;17.67;;;3.70;;
35743;SDS011;21867;52.012;4.324;2023-04-25T01:10:55;10.17;;;3.40;;
35743;SDS011;21867;52.012;4.324;2023-04-25T01:13:22;12.70;;;3.43;;
35743;SDS011;21867;52.012;4.324;2023-04-25T01:15:49;9.30;;;3.63;;
35743;SDS011;21867;52.012;4.324;2023-04-25T01:18:17;9.27;;;3.40;;
35743;SDS011;21867;52.012;4.324;2023-04-25T01:20:47;8.33;;;3.50;;
35743;SDS011;21867;52.012;4.324;2023-04-25T01:23:17;7.57;;;3.50;;
35743;SDS011;21867;52.012;4.324;2023-04-25T01:25:44;9.07;;;3.57;;
35743;SDS011;21867;52.012;4.324;2023-04-25T01:28:12;9.77;;;3.03;;
35743;SDS011;21867;52.012;4.324;2023-04-25T01:30:39;8.13;;;3.10;;
35743;SDS011;21867;52.012;4.324;2023-04-25T01:33:08;10.43;;;3.43;;
35743;SDS011;21867;52.012;4.324;2023-04-25T01:35:35;8.90;;;4.13;;
35743;SDS011;21867;52.012;4.324;2023-04-25T01:38:03;11.27;;;3.20;;
35743;SDS011;21867;52.012;4.324;2023-04-25T01:40:38;13.87;;;3.60;;
35743;SDS011;21867;52.012;4.324;2023-04-25T02:04:30;11.60;;;3.70;;
35743;SDS011;21867;52.012;4.324;2023-04-25T02:06:58;7.97;;;3.33;;
35743;SDS011;21867;52.012;4.324;2023-04-25T02:09:47;10.33;;;3.47;;
35743;SDS011;21867;52.012;4.324;2023-04-25T02:35:05;10.90;;;3.00;;
35743;SDS011;21867;52.012;4.324;2023-04-25T02:37:33;7.60;;;3.20;;
35743;SDS011;21867;52.012;4.324;2023-04-25T02:40:10;13.83;;;3.80;;
35743;SDS011;21867;52.012;4.324;2023-04-25T04:17:45;9.33;;;3.03;;
35743;SDS011;21867;52.012;4.324;2023-04-25T04:20:13;7.40;;;3.03;;
35743;SDS011;21867;52.012;4.324;2023-04-25T04:25:36;6.63;;;3.13;;
35743;SDS011;21867;52.012;4.324;2023-04-25T04:28:53;10.57;;;2.80;;
35743;SDS011;21867;52.012;4.324;2023-04-25T04:31:34;7.83;;;2.63;;
35743;SDS011;21867;52.012;4.324;2023-04-25T04:34:03;10.73;;;3.43;;
35743;SDS011;21867;52.012;4.324;2023-04-25T04:36:32;11.80;;;4.17;;
35743;SDS011;21867;52.012;4.324;2023-04-25T04:38:59;5.57;;;2.57;;
35743;SDS011;21867;52.012;4.324;2023-04-25T05:13:15;6.73;;;2.70;;
35743;SDS011;21867;52.012;4.324;2023-04-25T05:15:52;6.83;;;3.17;;
35743;SDS011;21867;52.012;4.324;2023-04-25T05:18:52;8.17;;;2.77;;
35743;SDS011;21867;52.012;4.324;2023-04-25T05:21:38;6.43;;;2.47;;
35743;SDS011;21867;52.012;4.324;2023-04-25T05:24:33;6.70;;;2.70;;
35743;SDS011;21867;52.012;4.324;2023-04-25T05:27:21;9.20;;;2.57;;
35743;SDS011;21867;52.012;4.324;2023-04-25T05:30:06;8.10;;;2.47;;
35743;SDS011;21867;52.012;4.324;2023-04-25T05:32:45;4.60;;;2.70;;
35743;SDS011;21867;52.012;4.324;2023-04-25T05:35:13;4.67;;;2.40;;
35743;SDS011;21867;52.012;4.324;2023-04-25T05:37:45;2.17;;;1.97;;
35743;SDS011;21867;52.012;4.324;2023-04-25T05:40:13;8.07;;;2.27;;
35743;SDS011;21867;52.012;4.324;2023-04-25T05:42:59;5.07;;;2.40;;
35743;SDS011;21867;52.012;4.324;2023-04-25T05:45:46;5.80;;;2.70;;
35743;SDS011;21867;52.012;4.324;2023-04-25T05:48:25;3.93;;;2.03;;
35743;SDS011;21867;52.012;4.324;2023-04-25T05:51:19;6.73;;;2.60;;
35743;SDS011;21867;52.012;4.324;2023-04-25T05:54:06;4.63;;;2.53;;
35743;SDS011;21867;52.012;4.324;2023-04-25T05:56:34;8.10;;;2.60;;
35743;SDS011;21867;52.012;4.324;2023-04-25T05:59:01;4.57;;;2.23;;
35743;SDS011;21867;52.012;4.324;2023-04-25T06:01:30;6.80;;;2.47;;
35743;SDS011;21867;52.012;4.324;2023-04-25T06:03:57;8.30;;;3.03;;
35743;SDS011;21867;52.012;4.324;2023-04-25T06:06:25;7.80;;;2.87;;
35743;SDS011;21867;52.012;4.324;2023-04-25T06:08:52;4.90;;;2.60;;
35743;SDS011;21867;52.012;4.324;2023-04-25T06:11:19;7.13;;;2.33;;
35743;SDS011;21867;52.012;4.324;2023-04-25T06:13:47;4.87;;;2.20;;
35743;SDS011;21867;52.012;4.324;2023-04-25T06:16:15;10.07;;;3.37;;
35743;SDS011;21867;52.012;4.324;2023-04-25T06:18:44;8.43;;;2.53;;
35743;SDS011;21867;52.012;4.324;2023-04-25T06:21:12;8.77;;;3.40;;
35743;SDS011;21867;52.012;4.324;2023-04-25T06:23:39;8.57;;;2.70;;
35743;SDS011;21867;52.012;4.324;2023-04-25T06:26:10;9.60;;;2.30;;
35743;SDS011;21867;52.012;4.324;2023-04-25T06:28:40;7.67;;;2.67;;
35743;SDS011;21867;52.012;4.324;2023-04-25T06:31:08;5.73;;;2.17;;
35743;SDS011;21867;52.012;4.324;2023-04-25T06:33:35;10.93;;;3.20;;
35743;SDS011;21867;52.012;4.324;2023-04-25T06:36:05;6.77;;;2.33;;
35743;SDS011;21867;52.012;4.324;2023-04-25T06:38:32;8.77;;;2.73;;
35743;SDS011;21867;52.012;4.324;2023-04-25T06:41:00;5.13;;;2.43;;
35743;SDS011;21867;52.012;4.324;2023-04-25T06:43:30;5.20;;;3.20;;
35743;SDS011;21867;52.012;4.324;2023-04-25T06:46:03;4.47;;;2.50;;
35743;SDS011;21867;52.012;4.324;2023-04-25T06:48:34;6.77;;;2.23;;
35743;SDS011;21867;52.012;4.324;2023-04-25T06:51:04;4.97;;;2.17;;
35743;SDS011;21867;52.012;4.324;2023-04-25T06:53:33;6.33;;;2.43;;
35743;SDS011;21867;52.012;4.324;2023-04-25T06:56:18;5.50;;;1.90;;
35743;SDS011;21867;52.012;4.324;2023-04-25T06:58:54;6.70;;;2.07;;
35743;SDS011;21867;52.012;4.324;2023-04-25T07:01:38;4.43;;;2.37;;
35743;SDS011;21867;52.012;4.324;2023-04-25T07:04:12;6.97;;;3.23;;
35743;SDS011;21867;52.012;4.324;2023-04-25T07:56:55;3.77;;;1.90;;
35743;SDS011;21867;52.012;4.324;2023-04-25T07:59:27;6.17;;;1.80;;
35743;SDS011;21867;52.012;4.324;2023-04-25T08:01:58;3.43;;;2.33;;
35743;SDS011;21867;52.012;4.324;2023-04-25T08:04:26;4.47;;;2.20;;
35743;SDS011;21867;52.012;4.324;2023-04-25T08:13:48;4.90;;;1.70;;
35743;SDS011;21867;52.012;4.324;2023-04-25T08:16:16;5.53;;;2.63;;
35743;SDS011;21867;52.012;4.324;2023-04-25T08:18:44;3.87;;;2.10;;
35743;SDS011;21867;52.012;4.324;2023-04-25T08:21:11;6.13;;;2.27;;
35743;SDS011;21867;52.012;4.324;2023-04-25T08:23:38;10.00;;;2.60;;
35743;SDS011;21867;52.012;4.324;2023-04-25T08:26:12;3.10;;;1.53;;
35743;SDS011;21867;52.012;4.324;2023-04-25T08:28:42;5.70;;;2.43;;
35743;SDS011;21867;52.012;4.324;2023-04-25T08:31:11;4.57;;;2.40;;
35743;SDS011;21867;52.012;4.324;2023-04-25T08:33:48;5.00;;;2.07;;
35743;SDS011;21867;52.012;4.324;2023-04-25T08:36:30;7.30;;;2.33;;
35743;SDS011;21867;52.012;4.324;2023-04-25T08:39:30;6.37;;;2.70;;
35743;SDS011;21867;52.012;4.324;2023-04-25T08:42:26;6.47;;;2.13;;
35743;SDS011;21867;52.012;4.324;2023-04-25T08:44:53;7.87;;;2.47;;
35743;SDS011;21867;52.012;4.324;2023-04-25T08:47:25;8.33;;;2.60;;
35743;SDS011;21867;52.012;4.324;2023-04-25T08:49:56;4.93;;;2.47;;
35743;SDS011;21867;52.012;4.324;2023-04-25T08:52:27;6.67;;;2.10;;
35743;SDS011;21867;52.012;4.324;2023-04-25T08:54:55;3.77;;;2.00;;
35743;SDS011;21867;52.012;4.324;2023-04-25T08:57:23;3.23;;;1.73;;
35743;SDS011;21867;52.012;4.324;2023-04-25T09:22:01;4.43;;;2.03;;
35743;SDS011;21867;52.012;4.324;2023-04-25T09:24:36;8.20;;;2.50;;
35743;SDS011;21867;52.012;4.324;2023-04-25T09:27:04;5.50;;;2.50;;
35743;SDS011;21867;52.012;4.324;2023-04-25T09:29:31;5.37;;;2.00;;
35743;SDS011;21867;52.012;4.324;2023-04-25T09:32:12;6.27;;;2.10;;
35743;SDS011;21867;52.012;4.324;2023-04-25T09:34:40;8.07;;;1.83;;
35743;SDS011;21867;52.012;4.324;2023-04-25T09:37:10;5.87;;;2.20;;
35743;SDS011;21867;52.012;4.324;2023-04-25T09:40:03;7.13;;;1.83;;
35743;SDS011;21867;52.012;4.324;2023-04-25T09:42:35;8.07;;;3.37;;
35743;SDS011;21867;52.012;4.324;2023-04-25T09:45:02;3.83;;;1.90;;
35743;SDS011;21867;52.012;4.324;2023-04-25T09:47:36;4.57;;;2.50;;
35743;SDS011;21867;52.012;4.324;2023-04-25T09:50:14;3.90;;;1.83;;
35743;SDS011;21867;52.012;4.324;2023-04-25T09:53:07;5.90;;;2.73;;
35743;SDS011;21867;52.012;4.324;2023-04-25T09:55:50;5.83;;;3.03;;
35743;SDS011;21867;52.012;4.324;2023-04-25T09:58:18;9.63;;;2.47;;
35743;SDS011;21867;52.012;4.324;2023-04-25T10:00:45;8.87;;;2.13;;
35743;SDS011;21867;52.012;4.324;2023-04-25T10:45:52;7.70;;;2.40;;
35743;SDS011;21867;52.012;4.324;2023-04-25T10:48:24;6.23;;;2.50;;
35743;SDS011;21867;52.012;4.324;2023-04-25T10:50:57;6.43;;;2.13;;
35743;SDS011;21867;52.012;4.324;2023-04-25T10:53:35;8.97;;;2.70;;
35743;SDS011;21867;52.012;4.324;2023-04-25T10:56:09;7.73;;;2.80;;
35743;SDS011;21867;52.012;4.324;2023-04-25T10:58:41;6.63;;;2.40;;
35743;SDS011;21867;52.012;4.324;2023-04-25T11:01:10;7.43;;;2.50;;
35743;SDS011;21867;52.012;4.324;2023-04-25T11:03:45;4.63;;;1.93;;
35743;SDS011;21867;52.012;4.324;2023-04-25T11:06:20;5.67;;;2.10;;
35743;SDS011;21867;52.012;4.324;2023-04-25T11:08:57;4.93;;;2.20;;
35743;SDS011;21867;52.012;4.324;2023-04-25T11:11:28;4.63;;;1.90;;
35743;SDS011;21867;52.012;4.324;2023-04-25T11:13:55;3.60;;;2.50;;
35743;SDS011;21867;52.012;4.324;2023-04-25T11:16:24;3.77;;;1.73;;
35743;SDS011;21867;52.012;4.324;2023-04-25T11:18:56;4.30;;;2.07;;
35743;SDS011;21867;52.012;4.324;2023-04-25T11:21:24;4.57;;;1.97;;
35743;SDS011;21867;52.012;4.324;2023-04-25T11:23:52;6.43;;;2.40;;
35743;SDS011;21867;52.012;4.324;2023-04-25T11:26:20;4.63;;;2.20;;
35743;SDS011;21867;52.012;4.324;2023-04-25T11:28:49;4.60;;;2.60;;
35743;SDS011;21867;52.012;4.324;2023-04-25T11:31:18;4.40;;;2.03;;
35743;SDS011;21867;52.012;4.324;2023-04-25T11:33:57;7.20;;;2.40;;
35743;SDS011;21867;52.012;4.324;2023-04-25T11:36:27;3.73;;;2.30;;
35743;SDS011;21867;52.012;4.324;2023-04-25T11:38:58;8.80;;;2.43;;
35743;SDS011;21867;52.012;4.324;2023-04-25T11:41:26;5.60;;;2.17;;
35743;SDS011;21867;52.012;4.324;2023-04-25T11:43:53;3.57;;;2.00;;
35743;SDS011;21867;52.012;4.324;2023-04-25T11:46:21;8.63;;;2.30;;
35743;SDS011;21867;52.012;4.324;2023-04-25T11:48:50;7.70;;;2.67;;
35743;SDS011;21867;52.012;4.324;2023-04-25T11:51:18;5.23;;;2.23;;
35743;SDS011;21867;52.012;4.324;2023-04-25T11:53:51;5.73;;;2.07;;
35743;SDS011;21867;52.012;4.324;2023-04-25T11:56:19;2.87;;;1.90;;
35743;SDS011;21867;52.012;4.324;2023-04-25T11:58:56;5.47;;;2.10;;
35743;SDS011;21867;52.012;4.324;2023-04-25T12:01:27;4.50;;;2.10;;
35743;SDS011;21867;52.012;4.324;2023-04-25T12:04:13;10.40;;;2.43;;
35743;SDS011;21867;52.012;4.324;2023-04-25T12:09:35;8.50;;;2.50;;
35743;SDS011;21867;52.012;4.324;2023-04-25T12:12:04;6.10;;;2.53;;
35743;SDS011;21867;52.012;4.324;2023-04-25T12:14:31;6.10;;;2.63;;
35743;SDS011;21867;52.012;4.324;2023-04-25T12:16:59;7.47;;;2.37;;
35743;SDS011;21867;52.012;4.324;2023-04-25T12:19:33;8.63;;;3.37;;
35743;SDS011;21867;52.012;4.324;2023-04-25T12:24:59;7.87;;;2.87;;
35743;SDS011;21867;52.012;4.324;2023-04-25T12:27:26;5.67;;;3.07;;
35743;SDS011;21867;52.012;4.324;2023-04-25T12:29:55;5.10;;;2.20;;
35743;SDS011;21867;52.012;4.324;2023-04-25T12:38:00;6.83;;;2.27;;
35743;SDS011;21867;52.012;4.324;2023-04-25T12:40:27;5.40;;;2.30;;
35743;SDS011;21867;52.012;4.324;2023-04-25T12:42:54;4.60;;;2.37;;
35743;SDS011;21867;52.012;4.324;2023-04-25T12:45:21;5.97;;;2.23;;
35743;SDS011;21867;52.012;4.324;2023-04-25T12:47:49;6.60;;;2.40;;
35743;SDS011;21867;52.012;4.324;2023-04-25T12:50:16;4.50;;;2.23;;
35743;SDS011;21867;52.012;4.324;2023-04-25T12:52:43;7.47;;;2.10;;
35743;SDS011;21867;52.012;4.324;2023-04-25T12:55:12;5.47;;;2.30;;
35743;SDS011;21867;52.012;4.324;2023-04-25T12:57:39;6.23;;;2.13;;
35743;SDS011;21867;52.012;4.324;2023-04-25T13:00:07;4.13;;;1.90;;
35743;SDS011;21867;52.012;4.324;2023-04-25T13:02:44;3.03;;;2.00;;
35743;SDS011;21867;52.012;4.324;2023-04-25T13:05:17;6.03;;;2.50;;
35743;SDS011;21867;52.012;4.324;2023-04-25T13:07:44;4.37;;;2.47;;
35743;SDS011;21867;52.012;4.324;2023-04-25T13:10:13;10.83;;;2.43;;
35743;SDS011;21867;52.012;4.324;2023-04-25T13:12:40;6.30;;;2.00;;
35743;SDS011;21867;52.012;4.324;2023-04-25T13:15:08;7.47;;;2.20;;
35743;SDS011;21867;52.012;4.324;2023-04-25T13:17:36;7.67;;;2.50;;
35743;SDS011;21867;52.012;4.324;2023-04-25T13:20:03;9.03;;;2.63;;
35743;SDS011;21867;52.012;4.324;2023-04-25T13:22:34;4.77;;;1.83;;
35743;SDS011;21867;52.012;4.324;2023-04-25T13:25:01;7.87;;;2.30;;
35743;SDS011;21867;52.012;4.324;2023-04-25T13:27:30;5.23;;;2.23;;
35743;SDS011;21867;52.012;4.324;2023-04-25T13:29:57;5.20;;;2.30;;
35743;SDS011;21867;52.012;4.324;2023-04-25T13:32:29;4.70;;;2.17;;
35743;SDS011;21867;52.012;4.324;2023-04-25T14:15:35;2.30;;;1.50;;
35743;SDS011;21867;52.012;4.324;2023-04-25T14:18:06;6.67;;;2.47;;
35743;SDS011;21867;52.012;4.324;2023-04-25T14:20:33;7.97;;;2.20;;
35743;SDS011;21867;52.012;4.324;2023-04-25T14:23:01;5.63;;;2.30;;
35743;SDS011;21867;52.012;4.324;2023-04-25T14:25:29;5.30;;;2.03;;
35743;SDS011;21867;52.012;4.324;2023-04-25T14:27:56;3.73;;;1.80;;
35743;SDS011;21867;52.012;4.324;2023-04-25T14:30:24;4.57;;;2.07;;
35743;SDS011;21867;52.012;4.324;2023-04-25T14:32:53;5.07;;;2.13;;
35743;SDS011;21867;52.012;4.324;2023-04-25T14:38:15;4.10;;;1.97;;
35743;SDS011;21867;52.012;4.324;2023-04-25T15:38:47;5.10;;;2.17;;
35743;SDS011;21867;52.012;4.324;2023-04-25T15:41:14;5.27;;;2.40;;
35743;SDS011;21867;52.012;4.324;2023-04-25T15:43:42;7.47;;;2.37;;
35743;SDS011;21867;52.012;4.324;2023-04-25T15:46:10;4.10;;;2.00;;
35743;SDS011;21867;52.012;4.324;2023-04-25T15:48:37;5.30;;;2.27;;
35743;SDS011;21867;52.012;4.324;2023-04-25T15:51:05;7.20;;;2.17;;
35743;SDS011;21867;52.012;4.324;2023-04-25T15:53:32;5.20;;;1.80;;
35743;SDS011;21867;52.012;4.324;2023-04-25T15:56:01;3.87;;;2.50;;
35743;SDS011;21867;52.012;4.324;2023-04-25T15:58:28;5.67;;;2.20;;
35743;SDS011;21867;52.012;4.324;2023-04-25T16:01:01;5.73;;;2.30;;
35743;SDS011;21867;52.012;4.324;2023-04-25T16:03:29;4.43;;;2.50;;
35743;SDS011;21867;52.012;4.324;2023-04-25T16:06:01;5.90;;;2.10;;
35743;SDS011;21867;52.012;4.324;2023-04-25T16:08:28;6.47;;;2.00;;
35743;SDS011;21867;52.012;4.324;2023-04-25T16:10:55;5.00;;;1.93;;
35743;SDS011;21867;52.012;4.324;2023-04-25T16:13:24;4.93;;;1.90;;
35743;SDS011;21867;52.012;4.324;2023-04-25T16:15:51;3.13;;;1.80;;
35743;SDS011;21867;52.012;4.324;2023-04-25T16:18:19;3.60;;;2.30;;
35743;SDS011;21867;52.012;4.324;2023-04-25T16:20:46;4.77;;;2.10;;
35743;SDS011;21867;52.012;4.324;2023-04-25T16:23:13;3.87;;;1.70;;
35743;SDS011;21867;52.012;4.324;2023-04-25T16:25:41;5.73;;;2.30;;
35743;SDS011;21867;52.012;4.324;2023-04-25T16:28:08;7.47;;;2.13;;
35743;SDS011;21867;52.012;4.324;2023-04-25T16:30:37;6.13;;;2.60;;
35743;SDS011;21867;52.012;4.324;2023-04-25T16:33:04;6.90;;;2.40;;
35743;SDS011;21867;52.012;4.324;2023-04-25T16:35:31;3.53;;;1.90;;
35743;SDS011;21867;52.012;4.324;2023-04-25T16:37:59;5.07;;;2.20;;
35743;SDS011;21867;52.012;4.324;2023-04-25T16:40:26;9.40;;;2.20;;
35743;SDS011;21867;52.012;4.324;2023-04-25T16:42:53;3.77;;;2.23;;
35743;SDS011;21867;52.012;4.324;2023-04-25T16:45:21;4.43;;;2.23;;
35743;SDS011;21867;52.012;4.324;2023-04-25T16:47:49;5.47;;;1.83;;
35743;SDS011;21867;52.012;4.324;2023-04-25T16:50:17;5.60;;;2.40;;
35743;SDS011;21867;52.012;4.324;2023-04-25T16:52:44;5.70;;;2.50;;
35743;SDS011;21867;52.012;4.324;2023-04-25T16:55:12;7.10;;;2.27;;
35743;SDS011;21867;52.012;4.324;2023-04-25T16:57:39;5.50;;;2.70;;
35743;SDS011;21867;52.012;4.324;2023-04-25T17:00:06;4.23;;;2.67;;
35743;SDS011;21867;52.012;4.324;2023-04-25T17:02:34;5.07;;;2.13;;
35743;SDS011;21867;52.012;4.324;2023-04-25T17:05:03;4.27;;;2.30;;
35743;SDS011;21867;52.012;4.324;2023-04-25T17:07:30;5.20;;;2.20;;
35743;SDS011;21867;52.012;4.324;2023-04-25T17:09:57;8.83;;;2.83;;
35743;SDS011;21867;52.012;4.324;2023-04-25T17:12:25;4.43;;;1.87;;
35743;SDS011;21867;52.012;4.324;2023-04-25T17:14:52;7.10;;;2.63;;
35743;SDS011;21867;52.012;4.324;2023-04-25T17:17:19;8.13;;;2.50;;
35743;SDS011;21867;52.012;4.324;2023-04-25T17:19:47;11.50;;;2.80;;
35743;SDS011;21867;52.012;4.324;2023-04-25T17:22:18;12.57;;;3.80;;
35743;SDS011;21867;52.012;4.324;2023-04-25T17:24:45;8.17;;;2.60;;
35743;SDS011;21867;52.012;4.324;2023-04-25T17:27:13;9.67;;;2.53;;
35743;SDS011;21867;52.012;4.324;2023-04-25T17:29:40;7.13;;;2.50;;
35743;SDS011;21867;52.012;4.324;2023-04-25T17:32:07;3.37;;;2.20;;
35743;SDS011;21867;52.012;4.324;2023-04-25T17:34:34;5.73;;;2.10;;
35743;SDS011;21867;52.012;4.324;2023-04-25T17:37:02;6.77;;;1.97;;
35743;SDS011;21867;52.012;4.324;2023-04-25T17:39:30;3.23;;;2.50;;
35743;SDS011;21867;52.012;4.324;2023-04-25T17:41:58;2.93;;;2.13;;
35743;SDS011;21867;52.012;4.324;2023-04-25T17:44:26;5.10;;;2.70;;
35743;SDS011;21867;52.012;4.324;2023-04-25T17:46:53;3.40;;;2.17;;
35743;SDS011;21867;52.012;4.324;2023-04-25T17:49:20;3.73;;;2.47;;
35743;SDS011;21867;52.012;4.324;2023-04-25T17:51:48;7.63;;;2.60;;
35743;SDS011;21867;52.012;4.324;2023-04-25T17:54:15;5.33;;;2.80;;
35743;SDS011;21867;52.012;4.324;2023-04-25T17:56:44;6.03;;;2.97;;
35743;SDS011;21867;52.012;4.324;2023-04-25T17:59:11;5.83;;;2.67;;
35743;SDS011;21867;52.012;4.324;2023-04-25T18:01:38;9.03;;;2.20;;
35743;SDS011;21867;52.012;4.324;2023-04-25T18:04:11;10.23;;;2.43;;
35743;SDS011;21867;52.012;4.324;2023-04-25T18:06:38;4.30;;;2.53;;
35743;SDS011;21867;52.012;4.324;2023-04-25T18:14:16;5.27;;;2.47;;
35743;SDS011;21867;52.012;4.324;2023-04-25T18:16:43;4.50;;;2.20;;
35743;SDS011;21867;52.012;4.324;2023-04-25T18:19:11;4.13;;;2.10;;
35743;SDS011;21867;52.012;4.324;2023-04-25T18:21:39;6.97;;;2.60;;
35743;SDS011;21867;52.012;4.324;2023-04-25T18:24:06;5.07;;;2.40;;
35743;SDS011;21867;52.012;4.324;2023-04-25T18:26:34;8.53;;;2.53;;
35743;SDS011;21867;52.012;4.324;2023-04-25T18:29:02;4.50;;;2.30;;
35743;SDS011;21867;52.012;4.324;2023-04-25T18:31:30;9.43;;;2.47;;
35743;SDS011;21867;52.012;4.324;2023-04-25T18:33:57;3.90;;;2.07;;
35743;SDS011;21867;52.012;4.324;2023-04-25T18:36:25;7.07;;;2.10;;
35743;SDS011;21867;52.012;4.324;2023-04-25T18:38:52;3.50;;;1.97;;
35743;SDS011;21867;52.012;4.324;2023-04-25T18:41:21;8.17;;;2.50;;
35743;SDS011;21867;52.012;4.324;2023-04-25T18:43:52;4.90;;;1.90;;
35743;SDS011;21867;52.012;4.324;2023-04-25T18:46:21;4.67;;;1.97;;
35743;SDS011;21867;52.012;4.324;2023-04-25T18:48:50;8.17;;;2.30;;
35743;SDS011;21867;52.012;4.324;2023-04-25T18:51:19;3.97;;;2.50;;
35743;SDS011;21867;52.012;4.324;2023-04-25T18:53:47;7.67;;;2.40;;
35743;SDS011;21867;52.012;4.324;2023-04-25T18:56:14;5.73;;;2.27;;
35743;SDS011;21867;52.012;4.324;2023-04-25T18:58:41;7.60;;;3.00;;
35743;SDS011;21867;52.012;4.324;2023-04-25T19:01:09;7.70;;;2.70;;
35743;SDS011;21867;52.012;4.324;2023-04-25T19:03:36;4.80;;;2.13;;
35743;SDS011;21867;52.012;4.324;2023-04-25T19:06:05;3.20;;;2.10;;
35743;SDS011;21867;52.012;4.324;2023-04-25T19:08:32;6.27;;;2.40;;
35743;SDS011;21867;52.012;4.324;2023-04-25T19:11:00;6.23;;;2.43;;
35743;SDS011;21867;52.012;4.324;2023-04-25T19:13:39;6.27;;;2.70;;
35743;SDS011;21867;52.012;4.324;2023-04-25T19:16:06;5.70;;;2.37;;
35743;SDS011;21867;52.012;4.324;2023-04-25T19:18:34;6.00;;;2.47;;
35743;SDS011;21867;52.012;4.324;2023-04-25T19:21:01;4.43;;;2.63;;
35743;SDS011;21867;52.012;4.324;2023-04-25T19:23:30;3.70;;;2.57;;
35743;SDS011;21867;52.012;4.324;2023-04-25T19:25:57;6.17;;;2.93;;
35743;SDS011;21867;52.012;4.324;2023-04-25T19:28:25;7.63;;;2.77;;
35743;SDS011;21867;52.012;4.324;2023-04-25T19:30:52;5.40;;;2.60;;
35743;SDS011;21867;52.012;4.324;2023-04-25T19:33:19;6.73;;;3.07;;
35743;SDS011;21867;52.012;4.324;2023-04-25T19:35:47;5.67;;;2.73;;
35743;SDS011;21867;52.012;4.324;2023-04-25T19:38:14;7.10;;;2.83;;
35743;SDS011;21867;52.012;4.324;2023-04-25T19:40:43;8.87;;;3.00;;
35743;SDS011;21867;52.012;4.324;2023-04-25T19:43:11;9.93;;;2.97;;
35743;SDS011;21867;52.012;4.324;2023-04-25T19:45:38;7.47;;;2.70;;
35743;SDS011;21867;52.012;4.324;2023-04-25T19:48:05;7.47;;;2.73;;
35743;SDS011;21867;52.012;4.324;2023-04-25T19:50:33;4.77;;;2.30;;
35743;SDS011;21867;52.012;4.324;2023-04-25T19:53:00;4.73;;;2.43;;
35743;SDS011;21867;52.012;4.324;2023-04-25T19:55:28;9.37;;;3.47;;
35743;SDS011;21867;52.012;4.324;2023-04-25T19:57:56;9.87;;;2.70;;
35743;SDS011;21867;52.012;4.324;2023-04-25T20:00:23;5.13;;;2.63;;
35743;SDS011;21867;52.012;4.324;2023-04-25T20:02:51;5.73;;;2.60;;
35743;SDS011;21867;52.012;4.324;2023-04-25T20:05:18;6.07;;;2.63;;
35743;SDS011;21867;52.012;4.324;2023-04-25T20:07:45;6.33;;;2.63;;
35743;SDS011;21867;52.012;4.324;2023-04-25T20:10:13;7.80;;;3.27;;
35743;SDS011;21867;52.012;4.324;2023-04-25T20:12:40;8.23;;;2.57;;
35743;SDS011;21867;52.012;4.324;2023-04-25T20:15:09;7.90;;;2.73;;
35743;SDS011;21867;52.012;4.324;2023-04-25T20:17:36;7.90;;;2.80;;
35743;SDS011;21867;52.012;4.324;2023-04-25T20:20:04;5.83;;;2.90;;
35743;SDS011;21867;52.012;4.324;2023-04-25T20:22:32;4.80;;;2.50;;
35743;SDS011;21867;52.012;4.324;2023-04-25T20:24:59;7.30;;;3.07;;
35743;SDS011;21867;52.012;4.324;2023-04-25T20:27:26;11.07;;;2.83;;
35743;SDS011;21867;52.012;4.324;2023-04-25T20:29:53;7.13;;;3.03;;
35743;SDS011;21867;52.012;4.324;2023-04-25T20:32:22;6.43;;;2.87;;
35743;SDS011;21867;52.012;4.324;2023-04-25T20:34:50;6.20;;;2.60;;
35743;SDS011;21867;52.012;4.324;2023-04-25T20:37:17;5.83;;;2.40;;
35743;SDS011;21867;52.012;4.324;2023-04-25T20:39:44;5.17;;;2.60;;
35743;SDS011;21867;52.012;4.324;2023-04-25T20:42:12;4.70;;;2.80;;
35743;SDS011;21867;52.012;4.324;2023-04-25T20:44:39;8.57;;;2.80;;
35743;SDS011;21867;52.012;4.324;2023-04-25T20:47:06;7.10;;;2.90;;
35743;SDS011;21867;52.012;4.324;2023-04-25T20:49:36;6.83;;;2.57;;
35743;SDS011;21867;52.012;4.324;2023-04-25T20:52:03;5.80;;;2.63;;
35743;SDS011;21867;52.012;4.324;2023-04-25T20:54:31;4.03;;;2.67;;
35743;SDS011;21867;52.012;4.324;2023-04-25T20:56:58;4.90;;;2.63;;
35743;SDS011;21867;52.012;4.324;2023-04-25T20:59:25;8.80;;;3.23;;
35743;SDS011;21867;52.012;4.324;2023-04-25T21:01:52;5.63;;;2.90;;
35743;SDS011;21867;52.012;4.324;2023-04-25T21:04:20;9.63;;;2.33;;
35743;SDS011;21867;52.012;4.324;2023-04-25T21:06:49;8.53;;;2.50;;
35743;SDS011;21867;52.012;4.324;2023-04-25T21:09:16;6.77;;;2.30;;
35743;SDS011;21867;52.012;4.324;2023-04-25T21:11:44;6.00;;;2.70;;
35743;SDS011;21867;52.012;4.324;2023-04-25T21:14:11;5.23;;;2.93;;
35743;SDS011;21867;52.012;4.324;2023-04-25T21:16:38;5.90;;;2.97;;
35743;SDS011;21867;52.012;4.324;2023-04-25T21:19:06;11.37;;;4.00;;
35743;SDS011;21867;52.012;4.324;2023-04-25T21:21:33;5.60;;;2.73;;
35743;SDS011;21867;52.012;4.324;2023-04-25T21:24:02;3.53;;;2.50;;
35743;SDS011;21867;52.012;4.324;2023-04-25T21:26:29;5.07;;;2.73;;
35743;SDS011;21867;52.012;4.324;2023-04-25T21:28:56;5.67;;;3.03;;
35743;SDS011;21867;52.012;4.324;2023-04-25T21:31:24;5.63;;;2.63;;
35743;SDS011;21867;52.012;4.324;2023-04-25T21:33:51;5.03;;;2.90;;
35743;SDS011;21867;52.012;4.324;2023-04-25T21:36:18;7.13;;;3.07;;
35743;SDS011;21867;52.012;4.324;2023-04-25T21:38:46;16.00;;;6.43;;
35743;SDS011;21867;52.012;4.324;2023-04-25T21:41:15;13.13;;;4.30;;
35743;SDS011;21867;52.012;4.324;2023-04-25T21:43:43;8.20;;;3.40;;
35743;SDS011;21867;52.012;4.324;2023-04-25T21:46:10;5.40;;;2.50;;
35743;SDS011;21867;52.012;4.324;2023-04-25T21:48:49;12.03;;;2.57;;
35743;SDS011;21867;52.012;4.324;2023-04-25T21:51:17;5.33;;;2.47;;
35743;SDS011;21867;52.012;4.324;2023-04-25T21:53:44;3.60;;;2.17;;
35743;SDS011;21867;52.012;4.324;2023-04-25T21:56:11;3.40;;;2.37;;
35743;SDS011;21867;52.012;4.324;2023-04-25T21:58:40;6.03;;;2.50;;
35743;SDS011;21867;52.012;4.324;2023-04-25T22:01:07;4.50;;;2.67;;
35743;SDS011;21867;52.012;4.324;2023-04-25T22:03:34;6.10;;;2.70;;